sensor_id;sensor_type;location;lat;lon;timestamp;P1;durP1;ratioP1;P2;durP2;ratioP2
13764;SDS011;6953;48.810;9.204;2023-05-10T00:00:50;0.30;;;0.30;;
13764;SDS011;6953;48.810;9.204;2023-05-10T00:03:16;0.30;;;0.30;;
13764;SDS011;6953;48.810;9.204;2023-05-10T00:05:41;0.20;;;0.20;;
13764;SDS011;6953;48.810;9.204;2023-05-10T00:08:07;0.30;;;0.30;;
13764;SDS011;6953;48.810;9.204;2023-05-10T00:10:36;0.30;;;0.30;;
13764;SDS011;6953;48.810;9.204;2023-05-10T00:13:02;0.20;;;0.20;;
13764;SDS011;6953;48.810;9.204;2023-05-10T00:15:27;0.28;;;0.28;;
13764;SDS011;6953;48.810;9.204;2023-05-10T00:17:53;0.28;;;0.28;;
13764;SDS011;6953;48.810;9.204;2023-05-10T00:20:18;0.30;;;0.30;;
13764;SDS011;6953;48.810;9.204;2023-05-10T00:22:43;0.30;;;0.30;;
13764;SDS011;6953;48.810;9.204;2023-05-10T00:25:09;0.30;;;0.30;;
13764;SDS011;6953;48.810;9.204;2023-05-10T00:27:35;0.30;;;0.30;;
13764;SDS011;6953;48.810;9.204;2023-05-10T00:30:00;0.30;;;0.30;;
13764;SDS011;6953;48.810;9.204;2023-05-10T00:32:25;0.40;;;0.40;;
13764;SDS011;6953;48.810;9.204;2023-05-10T00:34:51;0.30;;;0.30;;
13764;SDS011;6953;48.810;9.204;2023-05-10T00:37:16;0.30;;;0.30;;
13764;SDS011;6953;48.810;9.204;2023-05-10T00:39:42;0.38;;;0.38;;
13764;SDS011;6953;48.810;9.204;2023-05-10T00:42:07;0.30;;;0.30;;
13764;SDS011;6953;48.810;9.204;2023-05-10T00:44:32;0.40;;;0.40;;
13764;SDS011;6953;48.810;9.204;2023-05-10T00:46:58;0.30;;;0.30;;
13764;SDS011;6953;48.810;9.204;2023-05-10T00:49:24;0.20;;;0.20;;
13764;SDS011;6953;48.810;9.204;2023-05-10T00:51:50;0.30;;;0.30;;
13764;SDS011;6953;48.810;9.204;2023-05-10T00:54:15;0.30;;;0.30;;
13764;SDS011;6953;48.810;9.204;2023-05-10T00:56:41;0.30;;;0.30;;
13764;SDS011;6953;48.810;9.204;2023-05-10T00:59:08;0.30;;;0.30;;
13764;SDS011;6953;48.810;9.204;2023-05-10T01:01:34;0.30;;;0.30;;
13764;SDS011;6953;48.810;9.204;2023-05-10T01:04:00;0.40;;;0.40;;
13764;SDS011;6953;48.810;9.204;2023-05-10T01:06:28;0.30;;;0.30;;
13764;SDS011;6953;48.810;9.204;2023-05-10T01:08:53;0.30;;;0.30;;
13764;SDS011;6953;48.810;9.204;2023-05-10T01:11:18;0.40;;;0.40;;
13764;SDS011;6953;48.810;9.204;2023-05-10T01:13:44;0.22;;;0.22;;
13764;SDS011;6953;48.810;9.204;2023-05-10T01:16:15;0.30;;;0.30;;
13764;SDS011;6953;48.810;9.204;2023-05-10T01:18:41;0.35;;;0.35;;
13764;SDS011;6953;48.810;9.204;2023-05-10T01:21:17;0.30;;;0.30;;
13764;SDS011;6953;48.810;9.204;2023-05-10T01:27:05;0.30;;;0.30;;
13764;SDS011;6953;48.810;9.204;2023-05-10T01:35:26;0.30;;;0.30;;
13764;SDS011;6953;48.810;9.204;2023-05-10T01:43:43;0.38;;;0.38;;
13764;SDS011;6953;48.810;9.204;2023-05-10T01:46:16;0.30;;;0.30;;
13764;SDS011;6953;48.810;9.204;2023-05-10T01:48:48;0.40;;;0.40;;
13764;SDS011;6953;48.810;9.204;2023-05-10T01:51:19;0.20;;;0.20;;
13764;SDS011;6953;48.810;9.204;2023-05-10T01:53:48;0.32;;;0.32;;
13764;SDS011;6953;48.810;9.204;2023-05-10T01:56:16;0.30;;;0.30;;
13764;SDS011;6953;48.810;9.204;2023-05-10T01:58:46;0.40;;;0.40;;
13764;SDS011;6953;48.810;9.204;2023-05-10T02:01:13;0.40;;;0.40;;
13764;SDS011;6953;48.810;9.204;2023-05-10T02:03:40;0.30;;;0.30;;
13764;SDS011;6953;48.810;9.204;2023-05-10T02:06:07;0.40;;;0.40;;
13764;SDS011;6953;48.810;9.204;2023-05-10T02:08:35;0.38;;;0.38;;
13764;SDS011;6953;48.810;9.204;2023-05-10T02:11:02;0.40;;;0.40;;
13764;SDS011;6953;48.810;9.204;2023-05-10T02:13:30;0.30;;;0.30;;
13764;SDS011;6953;48.810;9.204;2023-05-10T02:15:59;0.35;;;0.35;;
13764;SDS011;6953;48.810;9.204;2023-05-10T02:18:26;0.30;;;0.30;;
13764;SDS011;6953;48.810;9.204;2023-05-10T02:20:52;0.20;;;0.20;;
13764;SDS011;6953;48.810;9.204;2023-05-10T02:23:20;0.30;;;0.30;;
13764;SDS011;6953;48.810;9.204;2023-05-10T02:25:46;0.32;;;0.32;;
13764;SDS011;6953;48.810;9.204;2023-05-10T02:28:14;0.40;;;0.40;;
13764;SDS011;6953;48.810;9.204;2023-05-10T02:30:40;0.40;;;0.40;;
13764;SDS011;6953;48.810;9.204;2023-05-10T02:33:07;0.32;;;0.32;;
13764;SDS011;6953;48.810;9.204;2023-05-10T02:35:33;0.30;;;0.30;;
13764;SDS011;6953;48.810;9.204;2023-05-10T02:38:00;0.30;;;0.30;;
13764;SDS011;6953;48.810;9.204;2023-05-10T02:40:26;0.30;;;0.30;;
13764;SDS011;6953;48.810;9.204;2023-05-10T02:42:53;0.40;;;0.40;;
13764;SDS011;6953;48.810;9.204;2023-05-10T02:45:21;0.40;;;0.40;;
13764;SDS011;6953;48.810;9.204;2023-05-10T02:47:51;0.40;;;0.40;;
13764;SDS011;6953;48.810;9.204;2023-05-10T02:50:17;0.30;;;0.30;;
13764;SDS011;6953;48.810;9.204;2023-05-10T02:52:44;0.32;;;0.32;;
13764;SDS011;6953;48.810;9.204;2023-05-10T02:55:14;0.40;;;0.40;;
13764;SDS011;6953;48.810;9.204;2023-05-10T02:57:48;0.38;;;0.38;;
13764;SDS011;6953;48.810;9.204;2023-05-10T03:00:16;0.30;;;0.30;;
13764;SDS011;6953;48.810;9.204;2023-05-10T03:02:42;0.32;;;0.32;;
13764;SDS011;6953;48.810;9.204;2023-05-10T03:05:07;0.38;;;0.38;;
13764;SDS011;6953;48.810;9.204;2023-05-10T03:07:33;0.30;;;0.30;;
13764;SDS011;6953;48.810;9.204;2023-05-10T03:09:59;0.30;;;0.30;;
13764;SDS011;6953;48.810;9.204;2023-05-10T03:18:12;0.40;;;0.40;;
13764;SDS011;6953;48.810;9.204;2023-05-10T03:20:47;0.30;;;0.30;;
13764;SDS011;6953;48.810;9.204;2023-05-10T03:25:45;0.30;;;0.30;;
13764;SDS011;6953;48.810;9.204;2023-05-10T03:28:13;0.40;;;0.40;;
13764;SDS011;6953;48.810;9.204;2023-05-10T03:30:40;0.20;;;0.20;;
13764;SDS011;6953;48.810;9.204;2023-05-10T03:33:07;0.40;;;0.40;;
13764;SDS011;6953;48.810;9.204;2023-05-10T03:35:33;0.40;;;0.40;;
13764;SDS011;6953;48.810;9.204;2023-05-10T03:37:59;0.40;;;0.40;;
13764;SDS011;6953;48.810;9.204;2023-05-10T03:40:25;0.40;;;0.40;;
13764;SDS011;6953;48.810;9.204;2023-05-10T03:42:51;0.30;;;0.30;;
13764;SDS011;6953;48.810;9.204;2023-05-10T03:45:16;0.40;;;0.40;;
13764;SDS011;6953;48.810;9.204;2023-05-10T03:47:42;0.30;;;0.30;;
13764;SDS011;6953;48.810;9.204;2023-05-10T03:50:07;0.40;;;0.40;;
13764;SDS011;6953;48.810;9.204;2023-05-10T03:52:33;0.20;;;0.20;;
13764;SDS011;6953;48.810;9.204;2023-05-10T03:54:58;0.22;;;0.22;;
13764;SDS011;6953;48.810;9.204;2023-05-10T03:57:23;0.28;;;0.28;;
13764;SDS011;6953;48.810;9.204;2023-05-10T03:59:50;0.30;;;0.30;;
13764;SDS011;6953;48.810;9.204;2023-05-10T04:02:16;0.30;;;0.30;;
13764;SDS011;6953;48.810;9.204;2023-05-10T04:04:41;0.30;;;0.30;;
13764;SDS011;6953;48.810;9.204;2023-05-10T04:07:06;0.30;;;0.30;;
13764;SDS011;6953;48.810;9.204;2023-05-10T04:09:32;0.30;;;0.30;;
13764;SDS011;6953;48.810;9.204;2023-05-10T04:11:58;0.40;;;0.40;;
13764;SDS011;6953;48.810;9.204;2023-05-10T04:14:23;0.30;;;0.30;;
13764;SDS011;6953;48.810;9.204;2023-05-10T04:16:49;0.25;;;0.25;;
13764;SDS011;6953;48.810;9.204;2023-05-10T04:19:14;0.30;;;0.30;;
13764;SDS011;6953;48.810;9.204;2023-05-10T04:21:40;0.30;;;0.30;;
13764;SDS011;6953;48.810;9.204;2023-05-10T04:24:05;0.35;;;0.35;;
13764;SDS011;6953;48.810;9.204;2023-05-10T04:26:31;0.30;;;0.30;;
13764;SDS011;6953;48.810;9.204;2023-05-10T04:28:56;0.30;;;0.30;;
13764;SDS011;6953;48.810;9.204;2023-05-10T04:31:21;0.30;;;0.30;;
13764;SDS011;6953;48.810;9.204;2023-05-10T04:33:47;0.20;;;0.20;;
13764;SDS011;6953;48.810;9.204;2023-05-10T04:36:12;0.40;;;0.40;;
13764;SDS011;6953;48.810;9.204;2023-05-10T04:38:38;0.30;;;0.30;;
13764;SDS011;6953;48.810;9.204;2023-05-10T04:41:07;0.30;;;0.30;;
13764;SDS011;6953;48.810;9.204;2023-05-10T04:43:35;0.30;;;0.30;;
13764;SDS011;6953;48.810;9.204;2023-05-10T04:46:01;0.32;;;0.32;;
13764;SDS011;6953;48.810;9.204;2023-05-10T04:48:26;0.40;;;0.40;;
13764;SDS011;6953;48.810;9.204;2023-05-10T04:50:52;0.38;;;0.38;;
13764;SDS011;6953;48.810;9.204;2023-05-10T04:53:17;0.35;;;0.35;;
13764;SDS011;6953;48.810;9.204;2023-05-10T04:55:42;0.30;;;0.30;;
13764;SDS011;6953;48.810;9.204;2023-05-10T04:58:08;0.30;;;0.30;;
13764;SDS011;6953;48.810;9.204;2023-05-10T05:00:33;0.30;;;0.30;;
13764;SDS011;6953;48.810;9.204;2023-05-10T05:02:59;0.30;;;0.30;;
13764;SDS011;6953;48.810;9.204;2023-05-10T05:05:24;0.30;;;0.30;;
13764;SDS011;6953;48.810;9.204;2023-05-10T05:07:50;0.30;;;0.30;;
13764;SDS011;6953;48.810;9.204;2023-05-10T05:10:15;0.30;;;0.30;;
13764;SDS011;6953;48.810;9.204;2023-05-10T05:12:41;0.30;;;0.30;;
13764;SDS011;6953;48.810;9.204;2023-05-10T05:15:06;0.30;;;0.30;;
13764;SDS011;6953;48.810;9.204;2023-05-10T05:17:34;0.30;;;0.30;;
13764;SDS011;6953;48.810;9.204;2023-05-10T05:19:59;0.40;;;0.40;;
13764;SDS011;6953;48.810;9.204;2023-05-10T05:22:25;0.30;;;0.30;;
13764;SDS011;6953;48.810;9.204;2023-05-10T05:24:56;0.30;;;0.30;;
13764;SDS011;6953;48.810;9.204;2023-05-10T05:27:23;0.20;;;0.20;;
13764;SDS011;6953;48.810;9.204;2023-05-10T05:29:52;0.30;;;0.30;;
13764;SDS011;6953;48.810;9.204;2023-05-10T05:32:18;0.30;;;0.30;;
13764;SDS011;6953;48.810;9.204;2023-05-10T05:34:46;0.30;;;0.30;;
13764;SDS011;6953;48.810;9.204;2023-05-10T05:37:15;0.30;;;0.30;;
13764;SDS011;6953;48.810;9.204;2023-05-10T05:39:42;0.30;;;0.30;;
13764;SDS011;6953;48.810;9.204;2023-05-10T05:42:07;0.25;;;0.25;;
13764;SDS011;6953;48.810;9.204;2023-05-10T05:44:34;0.28;;;0.28;;
13764;SDS011;6953;48.810;9.204;2023-05-10T05:46:59;0.30;;;0.30;;
13764;SDS011;6953;48.810;9.204;2023-05-10T05:49:24;0.30;;;0.30;;
13764;SDS011;6953;48.810;9.204;2023-05-10T05:51:50;0.20;;;0.20;;
13764;SDS011;6953;48.810;9.204;2023-05-10T05:54:15;0.30;;;0.30;;
13764;SDS011;6953;48.810;9.204;2023-05-10T05:56:41;0.20;;;0.20;;
13764;SDS011;6953;48.810;9.204;2023-05-10T05:59:06;0.22;;;0.22;;
13764;SDS011;6953;48.810;9.204;2023-05-10T06:01:31;0.20;;;0.20;;
13764;SDS011;6953;48.810;9.204;2023-05-10T06:03:57;0.20;;;0.20;;
13764;SDS011;6953;48.810;9.204;2023-05-10T06:06:22;0.30;;;0.30;;
13764;SDS011;6953;48.810;9.204;2023-05-10T06:08:47;0.30;;;0.30;;
13764;SDS011;6953;48.810;9.204;2023-05-10T06:11:13;0.20;;;0.20;;
13764;SDS011;6953;48.810;9.204;2023-05-10T06:13:38;0.30;;;0.30;;
13764;SDS011;6953;48.810;9.204;2023-05-10T06:16:03;0.30;;;0.30;;
13764;SDS011;6953;48.810;9.204;2023-05-10T06:18:29;0.28;;;0.28;;
13764;SDS011;6953;48.810;9.204;2023-05-10T06:20:55;0.30;;;0.30;;
13764;SDS011;6953;48.810;9.204;2023-05-10T06:23:20;0.30;;;0.30;;
13764;SDS011;6953;48.810;9.204;2023-05-10T06:25:45;0.30;;;0.30;;
13764;SDS011;6953;48.810;9.204;2023-05-10T06:28:11;0.30;;;0.30;;
13764;SDS011;6953;48.810;9.204;2023-05-10T06:30:36;0.30;;;0.30;;
13764;SDS011;6953;48.810;9.204;2023-05-10T06:33:02;0.20;;;0.20;;
13764;SDS011;6953;48.810;9.204;2023-05-10T06:35:28;0.30;;;0.30;;
13764;SDS011;6953;48.810;9.204;2023-05-10T06:37:53;0.20;;;0.20;;
13764;SDS011;6953;48.810;9.204;2023-05-10T06:40:19;0.15;;;0.15;;
13764;SDS011;6953;48.810;9.204;2023-05-10T06:42:45;0.20;;;0.20;;
13764;SDS011;6953;48.810;9.204;2023-05-10T06:45:11;0.20;;;0.20;;
13764;SDS011;6953;48.810;9.204;2023-05-10T06:47:37;0.30;;;0.30;;
13764;SDS011;6953;48.810;9.204;2023-05-10T06:50:03;0.25;;;0.25;;
13764;SDS011;6953;48.810;9.204;2023-05-10T06:52:28;0.25;;;0.25;;
13764;SDS011;6953;48.810;9.204;2023-05-10T06:54:53;0.20;;;0.20;;
13764;SDS011;6953;48.810;9.204;2023-05-10T06:57:19;0.20;;;0.20;;
13764;SDS011;6953;48.810;9.204;2023-05-10T06:59:45;0.20;;;0.20;;
13764;SDS011;6953;48.810;9.204;2023-05-10T07:02:11;0.30;;;0.30;;
13764;SDS011;6953;48.810;9.204;2023-05-10T07:04:36;0.30;;;0.30;;
13764;SDS011;6953;48.810;9.204;2023-05-10T07:07:01;0.30;;;0.30;;
13764;SDS011;6953;48.810;9.204;2023-05-10T07:09:27;0.20;;;0.20;;
13764;SDS011;6953;48.810;9.204;2023-05-10T07:11:52;0.20;;;0.20;;
13764;SDS011;6953;48.810;9.204;2023-05-10T07:14:17;0.22;;;0.22;;
13764;SDS011;6953;48.810;9.204;2023-05-10T07:16:43;0.20;;;0.20;;
13764;SDS011;6953;48.810;9.204;2023-05-10T07:19:09;0.30;;;0.30;;
13764;SDS011;6953;48.810;9.204;2023-05-10T07:21:34;0.20;;;0.20;;
13764;SDS011;6953;48.810;9.204;2023-05-10T07:24:00;0.20;;;0.20;;
13764;SDS011;6953;48.810;9.204;2023-05-10T07:26:25;0.20;;;0.20;;
13764;SDS011;6953;48.810;9.204;2023-05-10T07:28:51;0.20;;;0.20;;
13764;SDS011;6953;48.810;9.204;2023-05-10T07:31:16;0.20;;;0.20;;
13764;SDS011;6953;48.810;9.204;2023-05-10T07:33:42;0.20;;;0.20;;
13764;SDS011;6953;48.810;9.204;2023-05-10T07:36:07;0.20;;;0.20;;
13764;SDS011;6953;48.810;9.204;2023-05-10T07:38:32;0.20;;;0.20;;
13764;SDS011;6953;48.810;9.204;2023-05-10T07:40:58;0.20;;;0.20;;
13764;SDS011;6953;48.810;9.204;2023-05-10T07:43:23;0.22;;;0.22;;
13764;SDS011;6953;48.810;9.204;2023-05-10T07:45:48;0.20;;;0.20;;
13764;SDS011;6953;48.810;9.204;2023-05-10T07:48:14;0.15;;;0.15;;
13764;SDS011;6953;48.810;9.204;2023-05-10T07:50:39;0.20;;;0.20;;
13764;SDS011;6953;48.810;9.204;2023-05-10T07:53:04;0.20;;;0.20;;
13764;SDS011;6953;48.810;9.204;2023-05-10T07:55:30;0.17;;;0.17;;
13764;SDS011;6953;48.810;9.204;2023-05-10T07:57:55;0.20;;;0.20;;
13764;SDS011;6953;48.810;9.204;2023-05-10T08:00:20;0.20;;;0.20;;
13764;SDS011;6953;48.810;9.204;2023-05-10T08:02:46;0.20;;;0.20;;
13764;SDS011;6953;48.810;9.204;2023-05-10T08:05:12;0.20;;;0.20;;
13764;SDS011;6953;48.810;9.204;2023-05-10T08:07:38;0.20;;;0.20;;
13764;SDS011;6953;48.810;9.204;2023-05-10T08:10:04;0.20;;;0.20;;
13764;SDS011;6953;48.810;9.204;2023-05-10T08:12:30;0.20;;;0.20;;
13764;SDS011;6953;48.810;9.204;2023-05-10T08:14:55;0.20;;;0.20;;
13764;SDS011;6953;48.810;9.204;2023-05-10T08:17:20;0.20;;;0.20;;
13764;SDS011;6953;48.810;9.204;2023-05-10T08:19:46;0.20;;;0.20;;
13764;SDS011;6953;48.810;9.204;2023-05-10T08:22:11;0.20;;;0.20;;
13764;SDS011;6953;48.810;9.204;2023-05-10T08:24:37;0.20;;;0.20;;
13764;SDS011;6953;48.810;9.204;2023-05-10T08:27:04;0.20;;;0.20;;
13764;SDS011;6953;48.810;9.204;2023-05-10T08:29:30;0.22;;;0.22;;
13764;SDS011;6953;48.810;9.204;2023-05-10T08:31:55;0.30;;;0.30;;
13764;SDS011;6953;48.810;9.204;2023-05-10T08:34:21;0.20;;;0.20;;
13764;SDS011;6953;48.810;9.204;2023-05-10T08:36:46;0.20;;;0.20;;
13764;SDS011;6953;48.810;9.204;2023-05-10T08:39:11;0.20;;;0.20;;
13764;SDS011;6953;48.810;9.204;2023-05-10T08:41:37;0.20;;;0.20;;
13764;SDS011;6953;48.810;9.204;2023-05-10T08:44:04;0.20;;;0.20;;
13764;SDS011;6953;48.810;9.204;2023-05-10T08:46:30;0.20;;;0.20;;
13764;SDS011;6953;48.810;9.204;2023-05-10T08:48:58;0.20;;;0.20;;
13764;SDS011;6953;48.810;9.204;2023-05-10T08:51:26;0.20;;;0.20;;
13764;SDS011;6953;48.810;9.204;2023-05-10T08:53:57;0.20;;;0.20;;
13764;SDS011;6953;48.810;9.204;2023-05-10T08:56:22;0.20;;;0.20;;
13764;SDS011;6953;48.810;9.204;2023-05-10T08:58:48;0.20;;;0.20;;
13764;SDS011;6953;48.810;9.204;2023-05-10T09:01:15;0.10;;;0.10;;
13764;SDS011;6953;48.810;9.204;2023-05-10T09:03:43;0.10;;;0.10;;
13764;SDS011;6953;48.810;9.204;2023-05-10T09:06:11;0.17;;;0.17;;
13764;SDS011;6953;48.810;9.204;2023-05-10T09:08:38;0.20;;;0.20;;
13764;SDS011;6953;48.810;9.204;2023-05-10T09:11:05;0.20;;;0.20;;
13764;SDS011;6953;48.810;9.204;2023-05-10T09:13:30;0.10;;;0.10;;
13764;SDS011;6953;48.810;9.204;2023-05-10T09:15:56;0.10;;;0.10;;
13764;SDS011;6953;48.810;9.204;2023-05-10T09:18:22;0.10;;;0.10;;
13764;SDS011;6953;48.810;9.204;2023-05-10T09:20:48;0.10;;;0.10;;
13764;SDS011;6953;48.810;9.204;2023-05-10T09:23:14;0.10;;;0.10;;
13764;SDS011;6953;48.810;9.204;2023-05-10T09:25:41;0.20;;;0.20;;
13764;SDS011;6953;48.810;9.204;2023-05-10T09:28:07;0.10;;;0.10;;
13764;SDS011;6953;48.810;9.204;2023-05-10T09:30:36;0.10;;;0.10;;
13764;SDS011;6953;48.810;9.204;2023-05-10T09:33:01;0.20;;;0.20;;
13764;SDS011;6953;48.810;9.204;2023-05-10T09:35:28;0.10;;;0.10;;
13764;SDS011;6953;48.810;9.204;2023-05-10T09:37:55;0.20;;;0.20;;
13764;SDS011;6953;48.810;9.204;2023-05-10T09:40:29;0.20;;;0.20;;
13764;SDS011;6953;48.810;9.204;2023-05-10T09:42:59;0.13;;;0.13;;
13764;SDS011;6953;48.810;9.204;2023-05-10T09:45:33;0.10;;;0.10;;
13764;SDS011;6953;48.810;9.204;2023-05-10T09:47:59;0.20;;;0.20;;
13764;SDS011;6953;48.810;9.204;2023-05-10T09:50:27;0.20;;;0.20;;
13764;SDS011;6953;48.810;9.204;2023-05-10T09:53:02;0.15;;;0.15;;
13764;SDS011;6953;48.810;9.204;2023-05-10T09:55:45;0.20;;;0.20;;
13764;SDS011;6953;48.810;9.204;2023-05-10T09:58:14;0.10;;;0.10;;
13764;SDS011;6953;48.810;9.204;2023-05-10T10:00:41;0.15;;;0.15;;
13764;SDS011;6953;48.810;9.204;2023-05-10T10:03:12;0.20;;;0.20;;
13764;SDS011;6953;48.810;9.204;2023-05-10T10:05:41;0.20;;;0.20;;
13764;SDS011;6953;48.810;9.204;2023-05-10T10:08:08;0.17;;;0.17;;
13764;SDS011;6953;48.810;9.204;2023-05-10T10:10:34;0.10;;;0.10;;
13764;SDS011;6953;48.810;9.204;2023-05-10T10:13:00;0.10;;;0.10;;
13764;SDS011;6953;48.810;9.204;2023-05-10T10:15:26;0.20;;;0.20;;
13764;SDS011;6953;48.810;9.204;2023-05-10T10:17:51;0.20;;;0.20;;
13764;SDS011;6953;48.810;9.204;2023-05-10T10:20:18;0.20;;;0.20;;
13764;SDS011;6953;48.810;9.204;2023-05-10T10:22:44;0.10;;;0.10;;
13764;SDS011;6953;48.810;9.204;2023-05-10T10:25:10;0.20;;;0.20;;
13764;SDS011;6953;48.810;9.204;2023-05-10T10:33:01;0.10;;;0.10;;
13764;SDS011;6953;48.810;9.204;2023-05-10T10:35:38;0.10;;;0.10;;
13764;SDS011;6953;48.810;9.204;2023-05-10T10:38:05;0.20;;;0.20;;
13764;SDS011;6953;48.810;9.204;2023-05-10T10:40:33;0.10;;;0.10;;
13764;SDS011;6953;48.810;9.204;2023-05-10T10:43:44;0.10;;;0.10;;
13764;SDS011;6953;48.810;9.204;2023-05-10T10:48:41;0.10;;;0.10;;
13764;SDS011;6953;48.810;9.204;2023-05-10T10:51:11;0.20;;;0.20;;
13764;SDS011;6953;48.810;9.204;2023-05-10T10:53:38;0.10;;;0.10;;
13764;SDS011;6953;48.810;9.204;2023-05-10T10:56:06;0.20;;;0.20;;
13764;SDS011;6953;48.810;9.204;2023-05-10T10:58:33;0.20;;;0.20;;
13764;SDS011;6953;48.810;9.204;2023-05-10T11:01:18;0.10;;;0.10;;
13764;SDS011;6953;48.810;9.204;2023-05-10T11:06:34;0.20;;;0.20;;
13764;SDS011;6953;48.810;9.204;2023-05-10T11:09:07;0.20;;;0.20;;
13764;SDS011;6953;48.810;9.204;2023-05-10T11:11:55;0.20;;;0.20;;
13764;SDS011;6953;48.810;9.204;2023-05-10T11:14:20;0.20;;;0.20;;
13764;SDS011;6953;48.810;9.204;2023-05-10T11:16:47;0.13;;;0.13;;
13764;SDS011;6953;48.810;9.204;2023-05-10T11:19:13;0.20;;;0.20;;
13764;SDS011;6953;48.810;9.204;2023-05-10T11:21:50;0.20;;;0.20;;
13764;SDS011;6953;48.810;9.204;2023-05-10T11:24:17;0.10;;;0.10;;
13764;SDS011;6953;48.810;9.204;2023-05-10T11:26:44;0.20;;;0.20;;
13764;SDS011;6953;48.810;9.204;2023-05-10T11:29:11;0.20;;;0.20;;
13764;SDS011;6953;48.810;9.204;2023-05-10T11:31:47;0.20;;;0.20;;
13764;SDS011;6953;48.810;9.204;2023-05-10T11:34:26;0.20;;;0.20;;
13764;SDS011;6953;48.810;9.204;2023-05-10T11:36:56;0.20;;;0.20;;
13764;SDS011;6953;48.810;9.204;2023-05-10T11:39:25;0.20;;;0.20;;
13764;SDS011;6953;48.810;9.204;2023-05-10T11:41:52;0.20;;;0.20;;
13764;SDS011;6953;48.810;9.204;2023-05-10T11:44:18;0.20;;;0.20;;
13764;SDS011;6953;48.810;9.204;2023-05-10T11:46:43;0.20;;;0.20;;
13764;SDS011;6953;48.810;9.204;2023-05-10T11:49:08;0.20;;;0.20;;
13764;SDS011;6953;48.810;9.204;2023-05-10T11:51:35;0.20;;;0.20;;
13764;SDS011;6953;48.810;9.204;2023-05-10T11:54:01;0.10;;;0.10;;
13764;SDS011;6953;48.810;9.204;2023-05-10T11:56:32;0.20;;;0.20;;
13764;SDS011;6953;48.810;9.204;2023-05-10T11:58:58;0.20;;;0.20;;
13764;SDS011;6953;48.810;9.204;2023-05-10T12:01:25;0.20;;;0.20;;
13764;SDS011;6953;48.810;9.204;2023-05-10T12:03:52;0.20;;;0.20;;
13764;SDS011;6953;48.810;9.204;2023-05-10T12:06:19;0.20;;;0.20;;
13764;SDS011;6953;48.810;9.204;2023-05-10T12:08:46;0.20;;;0.20;;
13764;SDS011;6953;48.810;9.204;2023-05-10T12:11:12;0.20;;;0.20;;
13764;SDS011;6953;48.810;9.204;2023-05-10T12:13:43;0.10;;;0.10;;
13764;SDS011;6953;48.810;9.204;2023-05-10T12:16:19;0.20;;;0.20;;
13764;SDS011;6953;48.810;9.204;2023-05-10T12:18:49;0.20;;;0.20;;
13764;SDS011;6953;48.810;9.204;2023-05-10T12:21:16;0.20;;;0.20;;
13764;SDS011;6953;48.810;9.204;2023-05-10T12:23:42;0.20;;;0.20;;
13764;SDS011;6953;48.810;9.204;2023-05-10T12:26:10;0.10;;;0.10;;
13764;SDS011;6953;48.810;9.204;2023-05-10T12:28:36;0.20;;;0.20;;
13764;SDS011;6953;48.810;9.204;2023-05-10T12:31:02;0.20;;;0.20;;
13764;SDS011;6953;48.810;9.204;2023-05-10T12:33:35;0.20;;;0.20;;
13764;SDS011;6953;48.810;9.204;2023-05-10T12:36:03;0.20;;;0.20;;
13764;SDS011;6953;48.810;9.204;2023-05-10T12:40:58;0.20;;;0.20;;
13764;SDS011;6953;48.810;9.204;2023-05-10T12:43:24;0.15;;;0.15;;
13764;SDS011;6953;48.810;9.204;2023-05-10T12:45:50;0.20;;;0.20;;
13764;SDS011;6953;48.810;9.204;2023-05-10T12:48:15;0.10;;;0.10;;
13764;SDS011;6953;48.810;9.204;2023-05-10T12:50:41;0.10;;;0.10;;
13764;SDS011;6953;48.810;9.204;2023-05-10T12:53:06;0.20;;;0.20;;
13764;SDS011;6953;48.810;9.204;2023-05-10T12:55:31;0.10;;;0.10;;
13764;SDS011;6953;48.810;9.204;2023-05-10T12:57:57;0.20;;;0.20;;
13764;SDS011;6953;48.810;9.204;2023-05-10T13:00:22;0.20;;;0.20;;
13764;SDS011;6953;48.810;9.204;2023-05-10T13:02:48;0.20;;;0.20;;
13764;SDS011;6953;48.810;9.204;2023-05-10T13:05:13;0.10;;;0.10;;
13764;SDS011;6953;48.810;9.204;2023-05-10T13:07:39;0.20;;;0.20;;
13764;SDS011;6953;48.810;9.204;2023-05-10T13:10:05;0.20;;;0.20;;
13764;SDS011;6953;48.810;9.204;2023-05-10T13:12:31;0.20;;;0.20;;
13764;SDS011;6953;48.810;9.204;2023-05-10T13:14:56;0.20;;;0.20;;
13764;SDS011;6953;48.810;9.204;2023-05-10T13:17:22;0.20;;;0.20;;
13764;SDS011;6953;48.810;9.204;2023-05-10T13:19:47;0.20;;;0.20;;
13764;SDS011;6953;48.810;9.204;2023-05-10T13:22:13;0.20;;;0.20;;
13764;SDS011;6953;48.810;9.204;2023-05-10T13:24:38;0.20;;;0.20;;
13764;SDS011;6953;48.810;9.204;2023-05-10T13:27:03;0.20;;;0.20;;
13764;SDS011;6953;48.810;9.204;2023-05-10T13:29:28;0.20;;;0.20;;
13764;SDS011;6953;48.810;9.204;2023-05-10T13:31:54;0.20;;;0.20;;
13764;SDS011;6953;48.810;9.204;2023-05-10T13:34:19;0.20;;;0.20;;
13764;SDS011;6953;48.810;9.204;2023-05-10T13:36:45;0.28;;;0.28;;
13764;SDS011;6953;48.810;9.204;2023-05-10T13:39:11;0.20;;;0.20;;
13764;SDS011;6953;48.810;9.204;2023-05-10T13:41:37;0.20;;;0.20;;
13764;SDS011;6953;48.810;9.204;2023-05-10T13:44:02;0.20;;;0.20;;
13764;SDS011;6953;48.810;9.204;2023-05-10T13:46:28;0.20;;;0.20;;
13764;SDS011;6953;48.810;9.204;2023-05-10T13:48:55;0.20;;;0.20;;
13764;SDS011;6953;48.810;9.204;2023-05-10T13:51:20;0.20;;;0.20;;
13764;SDS011;6953;48.810;9.204;2023-05-10T13:53:45;0.10;;;0.10;;
13764;SDS011;6953;48.810;9.204;2023-05-10T13:56:12;0.15;;;0.15;;
13764;SDS011;6953;48.810;9.204;2023-05-10T13:58:38;0.20;;;0.20;;
13764;SDS011;6953;48.810;9.204;2023-05-10T14:01:03;0.20;;;0.20;;
13764;SDS011;6953;48.810;9.204;2023-05-10T14:03:29;0.20;;;0.20;;
13764;SDS011;6953;48.810;9.204;2023-05-10T14:05:55;0.20;;;0.20;;
13764;SDS011;6953;48.810;9.204;2023-05-10T14:08:20;0.20;;;0.20;;
13764;SDS011;6953;48.810;9.204;2023-05-10T14:10:46;0.20;;;0.20;;
13764;SDS011;6953;48.810;9.204;2023-05-10T14:13:11;0.20;;;0.20;;
13764;SDS011;6953;48.810;9.204;2023-05-10T14:15:37;0.20;;;0.20;;
13764;SDS011;6953;48.810;9.204;2023-05-10T14:18:02;0.20;;;0.20;;
13764;SDS011;6953;48.810;9.204;2023-05-10T14:20:28;0.20;;;0.20;;
13764;SDS011;6953;48.810;9.204;2023-05-10T14:22:54;0.20;;;0.20;;
13764;SDS011;6953;48.810;9.204;2023-05-10T14:25:19;0.10;;;0.10;;
13764;SDS011;6953;48.810;9.204;2023-05-10T14:27:45;0.20;;;0.20;;
13764;SDS011;6953;48.810;9.204;2023-05-10T14:30:10;0.20;;;0.20;;
13764;SDS011;6953;48.810;9.204;2023-05-10T14:32:36;0.20;;;0.20;;
13764;SDS011;6953;48.810;9.204;2023-05-10T14:35:02;0.20;;;0.20;;
13764;SDS011;6953;48.810;9.204;2023-05-10T14:37:28;0.20;;;0.20;;
13764;SDS011;6953;48.810;9.204;2023-05-10T14:39:53;0.20;;;0.20;;
13764;SDS011;6953;48.810;9.204;2023-05-10T14:42:19;0.20;;;0.20;;
13764;SDS011;6953;48.810;9.204;2023-05-10T14:44:44;0.20;;;0.20;;
13764;SDS011;6953;48.810;9.204;2023-05-10T14:47:09;0.20;;;0.20;;
13764;SDS011;6953;48.810;9.204;2023-05-10T14:49:35;0.20;;;0.20;;
13764;SDS011;6953;48.810;9.204;2023-05-10T14:52:00;0.20;;;0.20;;
13764;SDS011;6953;48.810;9.204;2023-05-10T14:54:25;0.20;;;0.20;;
13764;SDS011;6953;48.810;9.204;2023-05-10T14:56:51;0.20;;;0.20;;
13764;SDS011;6953;48.810;9.204;2023-05-10T14:59:16;0.20;;;0.20;;
13764;SDS011;6953;48.810;9.204;2023-05-10T15:01:42;0.20;;;0.20;;
13764;SDS011;6953;48.810;9.204;2023-05-10T15:04:07;0.20;;;0.20;;
13764;SDS011;6953;48.810;9.204;2023-05-10T15:06:33;0.20;;;0.20;;
13764;SDS011;6953;48.810;9.204;2023-05-10T15:09:00;0.20;;;0.20;;
13764;SDS011;6953;48.810;9.204;2023-05-10T15:11:27;0.20;;;0.20;;
13764;SDS011;6953;48.810;9.204;2023-05-10T15:13:53;0.20;;;0.20;;
13764;SDS011;6953;48.810;9.204;2023-05-10T15:16:18;0.20;;;0.20;;
13764;SDS011;6953;48.810;9.204;2023-05-10T15:18:43;0.20;;;0.20;;
13764;SDS011;6953;48.810;9.204;2023-05-10T15:21:09;0.20;;;0.20;;
13764;SDS011;6953;48.810;9.204;2023-05-10T15:23:34;0.15;;;0.15;;
13764;SDS011;6953;48.810;9.204;2023-05-10T15:26:00;0.20;;;0.20;;
13764;SDS011;6953;48.810;9.204;2023-05-10T15:28:26;0.20;;;0.20;;
13764;SDS011;6953;48.810;9.204;2023-05-10T15:30:51;0.20;;;0.20;;
13764;SDS011;6953;48.810;9.204;2023-05-10T15:33:17;0.20;;;0.20;;